Estación Meteorológica Peña el Pijo (Robertgarden) [ 09/24/17 17:39:19 CEST ]

Fecha Hora Presion(HPa) Temp (°C) Humedad % Rocio (°C) Viento ( m/s) Direccion Lluvia 1Hora(mm) Lluvia 24H(mm) LLuvia Total(mm)
2017-Apr-24 01:01:37 1008.800 10.9 77 7.0         1357.67
2017-Apr-24 02:01:52 1008.700 10.4 76 6.3         1357.67
2017-Apr-24 03:10:05 1008.100 9.6 77 5.7         1357.67
2017-Apr-24 04:02:05 1008.000 7.6 78 4.2         1357.67
2017-Apr-24 05:02:02 1008.000 6.1 81 3.1         1357.67
2017-Apr-24 06:02:01 1007.700 5.9 82 3.0         1357.67
2017-Apr-24 07:01:52 1007.900 5.8 83 3.1         1357.67
2017-Apr-24 08:01:53 1008.100 5.6 84 3.1         1357.67
2017-Apr-24 09:01:50 1008.100 10.2 85 7.8         1357.67
2017-Apr-24 10:01:53 1008.000 16.9 67 10.7         1357.67
2017-Apr-24 11:01:50 1008.100 22.3 47 10.4         1357.67
2017-Apr-24 12:01:51 1008.000 24.1 40 9.7         1357.67
2017-Apr-24 13:01:46 1007.700 21.6 43 8.4         1357.67
2017-Apr-24 14:01:36 1007.000 24.8 37 9.1         1357.67
2017-Apr-24 15:01:34 1007.100 18.1 56 9.1         1357.67
2017-Apr-24 16:01:33 1006.500 20.5 50 9.8         1357.67
2017-Apr-24 17:01:33 1006.200 23.0 44 10.2         1357.67
2017-Apr-24 18:01:49 1006.000 21.4 41 7.6         1357.67
2017-Apr-24 19:01:38 1006.400 16.4 60 8.7         1357.67
2017-Apr-24 20:01:29 1006.300 16.3 65 9.7     0.51 0.51 1358.19
2017-Apr-24 21:01:39 1006.400 14.9 69 9.3       0.51 1358.19
2017-Apr-24 22:01:19 1006.300 13.6 70 8.4       0.51 1358.19
2017-Apr-24 23:01:40 1006.700 12.7 73 8.0       0.51 1358.19

Temperatura Máxima:24°    Temperatura Mínima:
Presión Máxima:1008.800 Hpa    Presión Mínima:1006.000 Hpa


Volver